Time;durP1;ratioP1;P1;durP2;ratioP2;P2;SDS_P1;SDS_P2;PMS_P1;PMS_P2;Temp;Humidity;BMP_temperature;BMP_pressure;BME280_temperature;BME280_humidity;BME280_pressure;Samples;Min_cycle;Max_cycle;Signal;HPM_P1;HPM_P2
2021/11/10 00:00:13;;;;;;;;;74.00;57.67;;;;;8.85;53.70;102015.38;4977981;28;45477;-48
2021/11/10 00:02:39;;;;;;;;;77.00;58.50;;;;;8.83;53.81;102024.94;4977794;28;45510;-43
2021/11/10 00:05:05;;;;;;;;;77.00;59.33;;;;;8.80;53.72;102017.03;4977935;28;45293;-48
2021/11/10 00:07:31;;;;;;;;;79.67;63.00;;;;;8.75;54.12;102009.13;4977933;28;45464;-45
2021/11/10 00:09:57;;;;;;;;;76.33;58.67;;;;;8.72;54.13;102012.56;4978034;28;45532;-44
2021/11/10 00:12:23;;;;;;;;;73.00;57.33;;;;;8.70;54.11;102002.94;4977672;28;46154;-45
2021/11/10 00:14:48;;;;;;;;;75.67;57.33;;;;;8.67;53.95;101995.03;4976609;28;45446;-43
2021/11/10 00:17:14;;;;;;;;;79.33;62.00;;;;;8.65;54.13;102005.47;4977774;28;45747;-44
2021/11/10 00:19:40;;;;;;;;;75.67;58.00;;;;;8.60;54.02;101994.94;4976571;28;45505;-43
2021/11/10 00:22:05;;;;;;;;;75.67;60.00;;;;;8.60;54.28;101975.72;4977556;28;46435;-47
2021/11/10 00:24:30;;;;;;;;;80.67;61.33;;;;;8.60;54.36;101974.00;4976574;28;45306;-46
2021/11/10 00:26:56;;;;;;;;;76.67;64.33;;;;;8.58;54.06;101973.06;4977640;28;45308;-45
2021/11/10 00:29:21;;;;;;;;;80.33;62.33;;;;;8.58;54.24;101980.06;4977617;28;45401;-46
2021/11/10 00:31:46;;;;;;;;;76.67;60.00;;;;;8.53;54.26;101976.47;4977313;28;45961;-43
2021/11/10 00:34:12;;;;;;;;;80.33;64.00;;;;;8.56;54.38;101987.88;4977769;28;45227;-46
2021/11/10 00:36:37;;;;;;;;;77.00;59.67;;;;;8.55;54.35;101995.72;4977631;28;45225;-46
2021/11/10 00:39:03;;;;;;;;;77.00;60.33;;;;;8.53;54.36;101986.94;4977536;28;45206;-48
2021/11/10 00:41:29;;;;;;;;;78.33;60.67;;;;;8.52;54.36;101977.34;4977515;28;45432;-46
2021/11/10 00:43:59;;;;;;;;;91.67;85.00;;;;;8.52;54.12;101974.75;4977294;28;45289;-45
2021/11/10 00:46:25;;;;;;;;;88.33;76.67;;;;;8.50;54.55;101972.06;4977222;28;45307;-45
2021/11/10 00:48:50;;;;;;;;;88.67;76.00;;;;;8.48;54.36;101960.72;4968800;28;45213;-46
2021/11/10 00:51:15;;;;;;;;;82.00;66.00;;;;;8.45;54.05;101951.03;4977363;28;46078;-48
2021/11/10 00:53:41;;;;;;;;;82.00;65.67;;;;;8.45;54.59;101960.63;4957115;28;45184;-44
2021/11/10 00:56:06;;;;;;;;;78.67;62.00;;;;;8.42;54.42;101955.34;4961020;28;45219;-46
2021/11/10 00:58:32;;;;;;;;;81.00;64.33;;;;;8.39;54.37;101939.56;4960644;28;45557;-46
2021/11/10 01:00:57;;;;;;;;;77.00;60.00;;;;;8.37;54.53;101942.19;4960541;28;45254;-45
2021/11/10 01:03:27;;;;;;;;;68.33;55.00;;;;;8.36;54.46;101939.53;4960280;28;45183;-44
2021/11/10 01:05:52;;;;;;;;;76.33;60.00;;;;;8.32;54.47;101928.13;4960804;28;45418;-45
2021/11/10 01:08:19;;;;;;;;;76.67;60.33;;;;;8.28;53.94;101932.44;4960657;28;45585;-45
2021/11/10 01:10:44;;;;;;;;;82.00;63.67;;;;;8.26;54.59;101947.28;4960708;28;45269;-45
2021/11/10 01:13:10;;;;;;;;;79.67;65.67;;;;;8.24;54.29;101945.50;4960469;28;45210;-46
2021/11/10 01:15:39;;;;;;;;;78.33;60.67;;;;;8.21;54.62;101941.06;4960756;28;45311;-48
2021/11/10 01:18:04;;;;;;;;;77.00;59.33;;;;;8.18;54.49;101938.41;4960338;28;45454;-44
2021/11/10 01:20:30;;;;;;;;;79.67;60.33;;;;;8.16;54.45;101947.97;4960454;28;45356;-45
2021/11/10 01:22:56;;;;;;;;;78.67;59.00;;;;;8.13;54.61;101950.56;4966928;28;45345;-44
2021/11/10 01:25:21;;;;;;;;;75.33;59.00;;;;;8.10;54.55;101948.78;4978742;28;45344;-44
2021/11/10 01:27:47;;;;;;;;;79.00;65.00;;;;;8.07;54.58;101940.88;4978618;28;45441;-44
2021/11/10 01:30:13;;;;;;;;;71.50;57.25;;;;;8.04;54.25;101935.59;4979821;28;45399;-46
2021/11/10 01:32:39;;;;;;;;;80.67;64.00;;;;;8.03;54.58;101940.81;4978405;28;46126;-45
2021/11/10 01:35:06;;;;;;;;;73.33;57.00;;;;;8.00;54.51;101933.78;4979966;28;45415;-44
2021/11/10 01:37:31;;;;;;;;;75.00;59.00;;;;;7.96;54.53;101940.72;4979740;28;45228;-43
2021/11/10 01:39:56;;;;;;;;;74.67;59.67;;;;;7.94;54.48;101942.41;4979743;28;45259;-44
2021/11/10 01:42:25;;;;;;;;;72.00;57.00;;;;;7.92;54.41;101952.00;4979498;28;45236;-44
2021/11/10 01:44:51;;;;;;;;;77.33;61.33;;;;;7.90;54.59;101939.72;4979782;28;45418;-45
2021/11/10 01:47:16;;;;;;;;;79.00;60.00;;;;;7.88;54.34;101920.50;4972620;28;45365;-44
2021/11/10 01:49:43;;;;;;;;;76.00;59.33;;;;;7.85;54.60;101941.38;4978100;28;46199;-45
2021/11/10 01:52:09;;;;;;;;;77.00;59.33;;;;;7.82;54.64;101939.59;4979821;28;45484;-46
2021/11/10 01:54:37;;;;;;;;;77.33;59.33;;;;;7.76;54.74;101937.78;4979782;28;45315;-45
2021/11/10 01:57:05;;;;;;;;;74.67;59.00;;;;;7.78;54.56;101943.03;4979569;28;45181;-46
2021/11/10 01:59:35;;;;;;;;;78.50;60.25;;;;;7.69;54.62;101938.53;4979455;28;45302;-45
2021/11/10 02:02:05;;;;;;;;;81.67;63.00;;;;;7.72;54.76;101956.91;4969944;28;45456;-45
2021/11/10 02:04:32;;;;;;;;;78.75;61.25;;;;;7.70;54.84;101960.31;4975251;28;45593;-44
2021/11/10 02:06:59;;;;;;;;;80.75;62.00;;;;;7.69;54.80;101958.59;4979491;28;45416;-45
2021/11/10 02:09:24;;;;;;;;;79.67;62.67;;;;;7.62;54.69;101945.41;4977955;28;48082;-44
2021/11/10 02:11:51;;;;;;;;;74.50;57.25;;;;;7.61;54.86;101940.09;4979525;28;45268;-44
2021/11/10 02:14:19;;;;;;;;;72.00;57.75;;;;;7.60;54.59;101930.53;4979475;28;45545;-46
2021/11/10 02:16:44;;;;;;;;;71.25;55.00;;;;;7.61;54.86;101932.25;4968831;28;45516;-45
2021/11/10 02:19:11;;;;;;;;;72.25;57.75;;;;;7.59;54.86;101923.53;4959748;28;45928;-47
2021/11/10 02:21:46;;;;;;;;;71.00;56.25;;;;;7.56;54.83;101928.69;4959934;28;45316;-47
2021/11/10 02:24:11;;;;;;;;;72.25;58.00;;;;;7.55;54.68;101938.28;4959904;28;45319;-45
2021/11/10 02:26:37;;;;;;;;;76.00;58.25;;;;;7.49;54.97;101936.44;4959749;28;45253;-44
2021/11/10 02:29:02;;;;;;;;;72.00;57.75;;;;;7.49;54.74;101933.81;4959363;28;46071;-46
2021/11/10 02:31:34;;;;;;;;;79.00;60.00;;;;;7.47;54.95;101922.47;4959737;28;45430;-46
2021/11/10 02:34:01;;;;;;;;;75.67;59.33;;;;;7.46;54.98;101923.31;4959780;28;45277;-44
2021/11/10 02:36:27;;;;;;;;;54.25;44.50;;;;;7.43;55.10;101915.44;4959627;28;45448;-44
2021/11/10 02:38:53;;;;;;;;;73.00;58.75;;;;;7.41;54.96;101922.34;4959389;28;46282;-45
2021/11/10 02:41:19;;;;;;;;;74.50;58.25;;;;;7.38;54.91;101917.06;4958318;28;46015;-45
2021/11/10 02:43:45;;;;;;;;;73.00;57.50;;;;;7.37;54.85;101912.69;4958212;28;45426;-44
2021/11/10 02:46:10;;;;;;;;;75.75;58.00;;;;;7.36;54.87;101910.94;4959579;28;45298;-45
2021/11/10 02:48:36;;;;;;;;;74.25;57.75;;;;;7.34;54.86;101912.63;4967269;28;45240;-46
2021/11/10 02:51:01;;;;;;;;;66.75;53.50;;;;;7.32;54.93;101914.34;4979016;28;45154;-46
2021/11/10 02:53:33;;;;;;;;;71.25;54.00;;;;;7.28;54.92;101907.28;4977702;28;45199;-46
2021/11/10 02:55:58;;;;;;;;;68.25;52.00;;;;;7.27;55.06;101914.25;4977607;28;45406;-46
2021/11/10 02:58:24;;;;;;;;;66.50;51.50;;;;;7.23;55.10;101922.00;4978445;28;45246;-48
2021/11/10 03:00:49;;;;;;;;;63.75;51.00;;;;;7.23;55.10;101925.53;4978804;28;45316;-46
2021/11/10 03:03:14;;;;;;;;;67.50;52.25;;;;;7.19;54.94;101909.75;4978574;28;45186;-44
2021/11/10 03:05:45;;;;;;;;;68.50;54.00;;;;;7.15;54.98;101896.59;4978936;28;45443;-46
2021/11/10 03:08:10;;;;;;;;;67.25;52.75;;;;;7.16;55.01;101900.97;4978407;28;45394;-48
2021/11/10 03:10:36;;;;;;;;;66.25;52.75;;;;;7.14;55.12;101897.47;4978791;28;45309;-46
2021/11/10 03:13:01;;;;;;;;;66.75;53.25;;;;;7.13;55.16;101892.19;4977199;27;45687;-46
2021/11/10 03:15:26;;;;;;;;;61.50;50.25;;;;;7.12;55.10;101899.16;4978514;28;45434;-44
2021/11/10 03:17:52;;;;;;;;;65.50;51.00;;;;;7.10;55.15;101895.63;4977592;28;45308;-48
2021/11/10 03:20:17;;;;;;;;;64.25;51.50;;;;;7.11;55.25;101902.63;4978487;28;45260;-46
2021/11/10 03:22:43;;;;;;;;;66.25;52.25;;;;;7.10;55.20;101900.00;4978504;28;45539;-44
2021/11/10 03:25:08;;;;;;;;;62.50;49.75;;;;;7.09;55.20;101904.31;4978651;28;45244;-43
2021/11/10 03:27:34;;;;;;;;;64.00;50.75;;;;;7.08;55.25;101905.19;4978335;28;45459;-47
2021/11/10 03:29:59;;;;;;;;;64.25;47.50;;;;;7.06;55.51;101896.44;4978668;28;45371;-47
2021/11/10 03:32:25;;;;;;;;;52.25;41.50;;;;;7.08;55.33;101915.66;4978275;28;45246;-44
2021/11/10 03:34:50;;;;;;;;;57.50;45.50;;;;;7.06;55.31;101921.72;4978657;28;45263;-44
2021/11/10 03:37:16;;;;;;;;;53.00;44.50;;;;;7.05;55.38;101926.03;4978429;28;46286;-44
2021/11/10 03:39:41;;;;;;;;;55.25;44.00;;;;;7.06;55.23;101914.72;4978481;28;45413;-43
2021/11/10 03:42:07;;;;;;;;;57.00;48.00;;;;;7.05;55.46;101904.25;4978268;28;45315;-45
2021/11/10 03:44:33;;;;;;;;;54.75;44.00;;;;;7.01;55.27;101911.16;4977132;28;45473;-48
2021/11/10 03:46:58;;;;;;;;;58.50;45.50;;;;;7.02;55.44;101927.69;4974598;28;45257;-49
2021/11/10 03:49:25;;;;;;;;;52.25;41.00;;;;;7.01;55.48;101921.59;4975697;28;45232;-45
2021/11/10 03:51:52;;;;;;;;;55.00;45.75;;;;;7.00;55.46;101919.84;4978204;28;45323;-44
2021/11/10 03:54:18;;;;;;;;;55.50;43.25;;;;;7.00;55.48;101917.22;4978264;28;45327;-44
2021/11/10 03:56:45;;;;;;;;;57.50;48.25;;;;;7.00;55.42;101927.69;4978061;28;45433;-45
2021/11/10 03:59:11;;;;;;;;;57.25;46.00;;;;;6.98;55.57;101932.88;4978184;28;45269;-46
2021/11/10 04:01:36;;;;;;;;;60.50;48.75;;;;;6.96;55.46;101937.19;4977745;28;45220;-45
2021/11/10 04:04:02;;;;;;;;;56.00;46.25;;;;;6.94;55.47;101938.91;4966933;28;45240;-45
2021/11/10 04:06:27;;;;;;;;;56.75;44.00;;;;;6.95;55.41;101950.22;4958400;28;46030;-46
2021/11/10 04:08:54;;;;;;;;;51.50;40.75;;;;;6.96;55.39;101970.31;4957420;28;45735;-48
2021/11/10 04:11:20;;;;;;;;;49.75;38.75;;;;;6.92;55.54;101979.81;4958489;28;45320;-46
2021/11/10 04:13:46;;;;;;;;;53.00;39.00;;;;;6.93;55.49;101978.97;4958373;28;45428;-44
2021/11/10 04:16:11;;;;;;;;;51.00;40.75;;;;;6.91;55.58;101969.31;4958093;28;45567;-46
2021/11/10 04:18:37;;;;;;;;;45.75;39.25;;;;;6.90;55.58;101978.88;4973538;28;45327;-46
2021/11/10 04:21:04;;;;;;;;;55.25;41.50;;;;;6.90;55.56;101978.88;4958384;28;45230;-44
2021/11/10 04:23:32;;;;;;;;;52.25;40.25;;;;;6.89;55.76;101977.09;4958550;28;45216;-45
2021/11/10 04:25:59;;;;;;;;;48.00;39.00;;;;;6.88;55.53;101964.91;4958139;28;45431;-46
2021/11/10 04:28:25;;;;;;;;;44.00;35.50;;;;;6.89;55.85;101960.56;4957380;28;45338;-43
2021/11/10 04:30:53;;;;;;;;;41.75;35.00;;;;;6.87;55.65;101957.94;4957770;28;45311;-44
2021/11/10 04:33:19;;;;;;;;;50.50;39.75;;;;;6.87;55.78;101965.75;4958047;28;45414;-47
2021/11/10 04:35:44;;;;;;;;;41.75;37.75;;;;;6.86;55.87;101953.53;4957900;28;45190;-46
2021/11/10 04:38:10;;;;;;;;;45.00;37.75;;;;;6.87;55.69;101954.41;4964307;28;45201;-48
2021/11/10 04:40:35;;;;;;;;;44.00;38.50;;;;;6.85;55.72;101954.38;4958123;28;45575;-46
2021/11/10 04:43:00;;;;;;;;;40.00;35.50;;;;;6.86;55.72;101957.91;4957960;28;45398;-47
2021/11/10 04:45:31;;;;;;;;;44.00;36.75;;;;;6.83;55.65;101967.44;4957816;28;46164;-47
2021/11/10 04:47:57;;;;;;;;;40.50;35.00;;;;;6.83;55.74;101972.66;4957767;28;45392;-45
2021/11/10 04:50:23;;;;;;;;;38.75;34.00;;;;;6.82;55.83;101970.03;4982117;28;45285;-46
2021/11/10 04:52:48;;;;;;;;;40.75;35.25;;;;;6.77;55.80;101959.47;4977506;28;45308;-48
2021/11/10 04:55:13;;;;;;;;;45.00;34.50;;;;;6.79;55.86;101952.53;4975838;28;48543;-44
2021/11/10 04:57:39;;;;;;;;;38.25;33.75;;;;;6.78;55.97;101935.09;4977331;28;45297;-44
2021/11/10 05:00:06;;;;;;;;;38.75;35.00;;;;;6.78;55.75;101927.25;4977153;28;45265;-44
2021/11/10 05:02:32;;;;;;;;;39.00;35.25;;;;;6.77;55.88;101909.81;4975731;28;45285;-46
2021/11/10 05:04:57;;;;;;;;;42.75;35.25;;;;;6.75;55.72;101903.66;4976956;28;46617;-46
2021/11/10 05:07:23;;;;;;;;;44.00;38.25;;;;;6.75;55.68;101898.44;4977348;28;45260;-46
2021/11/10 05:09:51;;;;;;;;;35.25;30.75;;;;;6.72;55.94;101895.78;4977249;28;45327;-46
2021/11/10 05:12:16;;;;;;;;;34.00;33.25;;;;;6.70;55.92;101912.28;4977032;28;45493;-45
2021/11/10 05:14:43;;;;;;;;;39.50;32.75;;;;;6.67;55.88;101900.03;4976733;28;46081;-44
2021/11/10 05:17:08;;;;;;;;;34.75;32.00;;;;;6.66;55.99;101896.53;4976865;28;45305;-44
2021/11/10 05:19:33;;;;;;;;;38.25;35.25;;;;;6.66;55.98;101906.09;4977025;28;45234;-43
2021/11/10 05:21:59;;;;;;;;;45.75;39.00;;;;;6.64;56.14;101903.47;4976923;28;45466;-44
2021/11/10 05:24:26;;;;;;;;;49.50;38.50;;;;;6.63;56.01;101887.78;4976693;28;46904;-44
2021/11/10 05:26:53;;;;;;;;;54.50;44.25;;;;;6.60;55.90;101872.00;4976977;28;45216;-45
2021/11/10 05:29:19;;;;;;;;;53.50;44.50;;;;;6.58;55.97;101868.47;4976988;28;45220;-44
2021/11/10 05:31:44;;;;;;;;;50.50;40.50;;;;;6.55;56.15;101856.25;4976654;28;45360;-44
2021/11/10 05:34:10;;;;;;;;;53.75;42.25;;;;;6.53;56.16;101857.06;4976573;28;46024;-44
2021/11/10 05:36:35;;;;;;;;;55.75;44.75;;;;;6.48;55.94;101860.47;4976666;28;45315;-45
2021/11/10 05:39:00;;;;;;;;;45.50;39.50;;;;;6.47;56.00;101863.06;4976706;28;45229;-44
2021/11/10 05:41:26;;;;;;;;;61.00;47.50;;;;;6.45;56.18;101877.81;4977674;28;45339;-45
2021/11/10 05:43:51;;;;;;;;;57.75;46.50;;;;;6.44;56.05;101873.41;4979452;28;45296;-42
2021/11/10 05:46:16;;;;;;;;;66.75;51.75;;;;;6.41;55.94;101875.97;4979549;28;45297;-45
2021/11/10 05:48:42;;;;;;;;;63.00;49.75;;;;;6.40;55.92;101871.59;4973934;28;45316;-43
2021/11/10 05:51:07;;;;;;;;;54.00;45.50;;;;;6.37;56.12;101880.25;4979743;28;45395;-43
2021/11/10 05:53:33;;;;;;;;;63.25;52.50;;;;;6.30;55.96;101873.13;4979420;28;46227;-45
2021/11/10 05:56:00;;;;;;;;;55.25;46.50;;;;;6.36;55.91;101895.91;4979688;28;45506;-44
2021/11/10 05:58:28;;;;;;;;;64.75;50.50;;;;;6.33;56.17;101896.72;4979436;28;45223;-43
2021/11/10 06:00:58;;;;;;;;;63.50;49.00;;;;;6.29;56.13;101890.53;4979488;28;45178;-46
2021/11/10 06:03:24;;;;;;;;;57.00;46.00;;;;;6.30;56.23;101901.84;4979144;28;46368;-45
2021/11/10 06:05:50;;;;;;;;;63.50;50.75;;;;;6.28;56.11;101904.44;4979529;28;45447;-44
2021/11/10 06:08:16;;;;;;;;;65.25;50.75;;;;;6.29;55.93;101918.34;4979589;28;45238;-44
2021/11/10 06:10:42;;;;;;;;;64.75;49.00;;;;;6.27;55.80;101920.94;4979564;28;45228;-43
2021/11/10 06:13:07;;;;;;;;;56.50;45.75;;;;;6.27;56.21;101926.16;4979207;28;45963;-44
2021/11/10 06:15:32;;;;;;;;;48.00;39.75;;;;;6.27;56.05;101933.13;4978180;28;45806;-44
2021/11/10 06:17:58;;;;;;;;;49.00;40.25;;;;;6.23;55.96;101947.84;4979305;28;45466;-46
2021/11/10 06:20:23;;;;;;;;;52.00;38.75;;;;;6.23;55.96;101966.09;4979397;28;45370;-43
2021/11/10 06:22:49;;;;;;;;;49.50;38.50;;;;;6.23;56.13;101963.50;4979171;28;46962;-44
2021/11/10 06:25:15;;;;;;;;;54.50;44.25;;;;;6.22;56.35;101963.47;4979334;28;45426;-47
2021/11/10 06:27:40;;;;;;;;;54.75;45.00;;;;;6.19;56.23;101964.28;4979175;28;45339;-47
2021/11/10 06:30:07;;;;;;;;;62.50;47.50;;;;;6.15;56.13;101960.72;4979324;28;45294;-45
2021/11/10 06:32:33;;;;;;;;;56.75;44.25;;;;;6.16;56.30;101975.53;4978865;28;46396;-44
2021/11/10 06:34:58;;;;;;;;;55.50;42.50;;;;;6.16;56.29;101979.84;4979254;28;45292;-48
2021/11/10 06:37:24;;;;;;;;;59.75;48.25;;;;;6.13;56.22;101985.88;4977906;28;45365;-44
2021/11/10 06:39:49;;;;;;;;;67.25;51.00;;;;;6.09;56.33;101977.94;4979096;28;45303;-44
2021/11/10 06:42:15;;;;;;;;;55.75;46.75;;;;;6.10;56.39;101988.44;4978738;28;45335;-47
2021/11/10 06:44:40;;;;;;;;;60.75;48.75;;;;;6.09;56.14;101990.97;4978980;28;45470;-44
2021/11/10 06:47:06;;;;;;;;;59.25;49.50;;;;;6.08;56.15;102005.78;4974367;28;45350;-43
2021/11/10 06:49:31;;;;;;;;;56.75;46.00;;;;;6.06;56.32;102015.28;4971614;28;45340;-44
2021/11/10 06:51:57;;;;;;;;;61.50;50.00;;;;;6.04;56.13;102009.16;4976571;28;48090;-45
2021/11/10 06:54:23;;;;;;;;;55.75;44.25;;;;;6.02;56.15;102021.28;4978996;28;45180;-47
2021/11/10 06:56:50;;;;;;;;;60.00;46.00;;;;;5.99;56.15;102029.91;4979022;28;45367;-46
2021/11/10 06:59:17;;;;;;;;;55.75;44.75;;;;;5.96;56.21;102036.75;4978900;28;45349;-45
2021/11/10 07:01:42;;;;;;;;;56.00;43.75;;;;;5.96;56.36;102036.75;4978271;28;45419;-43
2021/11/10 07:04:08;;;;;;;;;54.50;43.50;;;;;5.93;56.29;102027.13;4979072;28;45317;-45
2021/11/10 07:06:33;;;;;;;;;56.75;46.00;;;;;5.92;56.51;102027.09;4978805;28;45301;-45
2021/11/10 07:08:59;;;;;;;;;51.25;40.25;;;;;5.91;56.07;102026.22;4978785;28;45469;-45
2021/11/10 07:11:24;;;;;;;;;55.00;42.00;;;;;5.90;56.11;102031.38;4978532;28;45339;-44
2021/11/10 07:13:50;;;;;;;;;60.50;47.50;;;;;5.86;56.26;102013.03;4978608;28;45188;-47
2021/11/10 07:16:15;;;;;;;;;50.75;43.25;;;;;5.87;56.36;102016.50;4978492;28;46367;-43
2021/11/10 07:18:41;;;;;;;;;56.25;46.00;;;;;5.85;56.44;102013.88;4978791;28;45215;-46
2021/11/10 07:21:08;;;;;;;;;56.50;44.25;;;;;5.86;56.29;102017.34;4978345;28;45236;-43
2021/11/10 07:23:34;;;;;;;;;59.00;45.75;;;;;5.84;56.38;101996.44;4978726;28;45256;-44
2021/11/10 07:26:01;;;;;;;;;60.00;47.75;;;;;5.84;56.48;102003.41;4977216;28;45440;-46
2021/11/10 07:28:26;;;;;;;;;66.25;51.00;;;;;5.83;56.61;102002.50;4978474;28;45245;-46
2021/11/10 07:30:51;;;;;;;;;61.25;48.25;;;;;5.80;56.63;102002.44;4978309;28;45307;-44
2021/11/10 07:33:17;;;;;;;;;64.25;51.00;;;;;5.80;56.52;101997.22;4978111;28;45291;-44
2021/11/10 07:35:43;;;;;;;;;59.25;47.50;;;;;5.79;56.68;101991.97;4978385;28;45376;-44
2021/11/10 07:38:09;;;;;;;;;62.25;46.25;;;;;5.76;56.79;101990.16;4966231;28;45263;-44
2021/11/10 07:40:36;;;;;;;;;59.75;49.75;;;;;5.75;56.70;101998.84;4958711;28;47191;-48
2021/11/10 07:43:02;;;;;;;;;64.75;47.25;;;;;5.73;56.83;101997.91;4958817;28;45432;-48
2021/11/10 07:45:32;;;;;;;;;57.00;46.00;;;;;5.70;56.95;101985.66;4958936;28;45305;-45
2021/11/10 07:47:59;;;;;;;;;62.00;45.50;;;;;5.72;56.84;101984.81;4959072;28;45387;-44
2021/11/10 07:50:26;;;;;;;;;61.00;49.25;;;;;5.70;56.90;101992.63;4977536;28;45251;-45
2021/11/10 07:52:52;;;;;;;;;58.75;45.75;;;;;5.70;56.71;101997.84;4978105;28;45386;-43
2021/11/10 07:55:19;;;;;;;;;59.00;47.75;;;;;5.75;56.93;102011.88;4978238;28;45410;-46
2021/11/10 07:57:44;;;;;;;;;60.25;47.25;;;;;5.77;56.92;102004.09;4978213;28;45232;-46
2021/11/10 08:00:16;;;;;;;;;60.75;49.00;;;;;5.78;56.93;102001.50;4977936;28;45311;-44
2021/11/10 08:02:42;;;;;;;;;65.25;48.75;;;;;5.77;57.29;101993.66;4977591;28;45316;-46
2021/11/10 08:05:09;;;;;;;;;63.50;46.50;;;;;5.82;56.95;102010.31;4978219;28;45146;-46
2021/11/10 08:07:35;;;;;;;;;61.75;49.00;;;;;5.81;57.13;102019.88;4978079;28;45453;-43
2021/11/10 08:10:02;;;;;;;;;57.50;48.25;;;;;5.88;57.21;102038.28;4977887;28;46747;-45
2021/11/10 08:12:29;;;;;;;;;61.25;50.25;;;;;5.91;56.98;102046.19;4977798;28;45409;-44
2021/11/10 08:14:55;;;;;;;;;65.25;50.50;;;;;5.90;57.29;102036.59;4978012;28;45335;-45
2021/11/10 08:17:20;;;;;;;;;66.50;50.00;;;;;5.94;57.27;102038.44;4977670;28;45385;-47
2021/11/10 08:19:45;;;;;;;;;73.25;52.00;;;;;5.96;57.33;102026.31;4977713;28;46104;-44
2021/11/10 08:22:11;;;;;;;;;66.25;51.50;;;;;5.97;57.40;102023.72;4977674;28;45186;-44
2021/11/10 08:24:36;;;;;;;;;63.25;51.50;;;;;5.99;57.33;102029.03;4977948;28;45247;-47
2021/11/10 08:27:02;;;;;;;;;69.25;51.75;;;;;6.00;57.58;102025.59;4976194;28;45493;-47
2021/11/10 08:29:28;;;;;;;;;68.25;54.25;;;;;6.01;57.37;102030.84;4977639;28;46751;-43
2021/11/10 08:31:53;;;;;;;;;64.25;51.00;;;;;6.02;57.50;102036.94;4959885;28;45708;-44
2021/11/10 08:34:19;;;;;;;;;65.00;50.00;;;;;6.03;57.67;102025.66;4977793;28;45466;-43
2021/11/10 08:36:44;;;;;;;;;64.50;50.75;;;;;6.03;57.32;102023.03;4977438;28;45282;-43
2021/11/10 08:39:10;;;;;;;;;65.75;51.75;;;;;6.06;57.42;102022.25;4969227;28;47006;-44
2021/11/10 08:41:36;;;;;;;;;63.25;50.50;;;;;6.07;57.41;102031.84;4971458;28;45318;-43
2021/11/10 08:44:02;;;;;;;;;63.50;49.50;;;;;6.09;57.41;102027.53;4977478;27;45186;-46
2021/11/10 08:46:28;;;;;;;;;63.75;50.00;;;;;6.10;57.28;102024.97;4977037;28;45331;-46
2021/11/10 08:48:57;;;;;;;;;64.25;50.25;;;;;6.13;57.58;102035.47;4967808;28;46302;-44
2021/11/10 08:51:24;;;;;;;;;68.00;52.00;;;;;6.16;57.54;102029.44;4977443;28;45241;-43
2021/11/10 08:53:50;;;;;;;;;63.25;51.00;;;;;6.17;57.42;102026.00;4977626;28;45319;-46
2021/11/10 08:56:16;;;;;;;;;65.25;50.50;;;;;6.20;57.42;102038.25;4977324;28;45476;-43
2021/11/10 08:58:42;;;;;;;;;69.25;51.75;;;;;6.24;57.51;102045.28;4975792;28;47267;-43
2021/11/10 09:01:08;;;;;;;;;68.25;55.00;;;;;6.26;57.43;102046.22;4961752;28;45371;-47
2021/11/10 09:03:33;;;;;;;;;74.00;57.50;;;;;6.26;57.69;102041.00;4957821;28;45479;-44
2021/11/10 09:05:59;;;;;;;;;73.00;57.25;;;;;6.29;57.59;102034.13;4956337;28;45538;-44
2021/11/10 09:08:30;;;;;;;;;79.75;59.50;;;;;6.36;57.54;102055.16;4957629;28;45505;-46
2021/11/10 09:10:57;;;;;;;;;80.25;62.00;;;;;6.37;57.61;102051.72;4957593;28;45507;-46
2021/11/10 09:13:23;;;;;;;;;80.00;61.25;;;;;6.38;57.69;102043.00;4956297;28;45346;-45
2021/11/10 09:15:49;;;;;;;;;75.00;58.00;;;;;6.39;57.71;102026.50;4958896;28;45256;-44
2021/11/10 09:18:15;;;;;;;;;74.75;57.50;;;;;6.41;57.58;102027.44;4960371;28;45192;-44
2021/11/10 09:20:42;;;;;;;;;76.50;59.00;;;;;6.44;57.55;102024.88;4960508;28;45432;-47
2021/11/10 09:23:10;;;;;;;;;71.75;55.00;;;;;6.45;57.55;102029.25;4960772;28;45317;-45
2021/11/10 09:25:37;;;;;;;;;77.75;59.25;;;;;6.50;57.43;102025.94;4960354;28;45352;-44
2021/11/10 09:28:05;;;;;;;;;75.50;57.00;;;;;6.55;57.63;102019.91;4959078;28;45991;-45
2021/11/10 09:30:31;;;;;;;;;74.75;56.75;;;;;6.55;57.55;102018.19;4960330;28;45296;-48
2021/11/10 09:32:59;;;;;;;;;75.75;57.00;;;;;6.58;57.44;102007.81;4960449;28;45386;-45
2021/11/10 09:35:26;;;;;;;;;77.25;58.50;;;;;6.64;57.81;102028.84;4960177;28;45527;-46
2021/11/10 09:37:52;;;;;;;;;77.00;58.50;;;;;6.69;57.69;102030.69;4960375;28;46292;-43
2021/11/10 09:40:20;;;;;;;;;81.25;58.75;;;;;6.71;57.75;102027.25;4960239;28;45274;-46
2021/11/10 09:42:46;;;;;;;;;72.25;56.75;;;;;6.78;57.74;102023.03;4960110;28;45203;-44
2021/11/10 09:45:15;;;;;;;;;73.25;57.75;;;;;6.81;57.71;102028.34;4960097;28;45277;-43
2021/11/10 09:47:42;;;;;;;;;74.25;56.75;;;;;6.85;57.68;102027.56;4959960;28;46188;-47
2021/11/10 09:50:13;;;;;;;;;75.25;59.00;;;;;6.90;57.70;102035.50;4981085;28;45460;-46
2021/11/10 09:52:40;;;;;;;;;77.75;60.00;;;;;6.92;57.51;102049.50;4979908;28;45332;-45
2021/11/10 09:55:07;;;;;;;;;74.75;58.00;;;;;6.97;57.82;102059.19;4979203;28;45311;-48
2021/11/10 09:57:33;;;;;;;;;76.50;58.75;;;;;7.02;57.91;102055.78;4979452;28;45327;-44
2021/11/10 09:59:58;;;;;;;;;78.00;60.25;;;;;7.06;57.76;102055.88;4979141;28;45259;-45
2021/11/10 10:02:26;;;;;;;;;75.75;58.00;;;;;7.11;57.77;102054.25;4979408;28;45445;-46
2021/11/10 10:04:52;;;;;;;;;79.00;59.50;;;;;7.19;57.75;102058.78;4979206;28;45336;-45
2021/11/10 10:07:18;;;;;;;;;74.75;58.75;;;;;7.25;57.90;102065.00;4978107;28;48272;-45
2021/11/10 10:09:44;;;;;;;;;71.00;54.75;;;;;7.32;57.67;102071.25;4979209;28;45375;-46
2021/11/10 10:12:09;;;;;;;;;75.00;56.75;;;;;7.39;57.73;102078.34;4979610;28;45414;-43
2021/11/10 10:14:36;;;;;;;;;73.50;57.00;;;;;7.48;57.82;102082.88;4979054;28;45369;-48
2021/11/10 10:17:03;;;;;;;;;72.00;56.50;;;;;7.56;58.07;102099.63;4979084;28;45461;-44
2021/11/10 10:19:43;;;;;;;;;70.25;54.00;;;;;7.67;58.15;102094.59;4977768;28;46002;-43
2021/11/10 10:22:18;;;;;;;;;72.25;54.25;;;;;7.78;58.06;102085.22;4979250;28;45276;-45
2021/11/10 10:24:48;;;;;;;;;76.25;56.75;;;;;7.94;58.08;102073.31;4979202;28;45246;-46
2021/11/10 10:27:29;;;;;;;;;68.25;51.00;;;;;8.08;57.94;102060.44;4977602;28;45389;-45
2021/11/10 10:30:24;;;;;;;;;73.00;55.00;;;;;8.26;57.85;102052.03;4979078;28;45322;-48
2021/11/10 10:33:00;;;;;;;;;74.25;58.75;;;;;8.40;58.02;102030.41;4964337;28;45421;-44
2021/11/10 10:35:33;;;;;;;;;75.25;58.75;;;;;8.59;58.05;102031.59;4979073;28;45340;-46
2021/11/10 10:38:00;;;;;;;;;74.25;57.50;;;;;8.75;58.08;102030.06;4979159;28;46264;-44
2021/11/10 10:40:30;;;;;;;;;76.50;58.25;;;;;8.96;57.98;102026.88;4978805;28;45334;-48
2021/11/10 10:42:56;;;;;;;;;77.50;59.75;;;;;9.14;57.81;102009.63;4979128;28;45279;-48
2021/11/10 10:45:35;;;;;;;;;79.00;61.50;;;;;9.36;58.12;102018.63;4978879;28;45496;-44
2021/11/10 10:48:25;;;;;;;;;82.75;61.75;;;;;9.56;57.87;102030.19;4970142;28;46329;-45
2021/11/10 10:51:03;;;;;;;;;75.25;59.00;;;;;9.82;57.91;102031.31;4969750;28;45244;-45
2021/11/10 10:53:47;;;;;;;;;78.75;61.25;;;;;10.05;58.00;102011.41;4959389;28;45229;-45
2021/11/10 10:56:14;;;;;;;;;71.25;57.00;;;;;10.25;57.95;102005.41;4959290;28;45185;-45
2021/11/10 10:58:40;;;;;;;;;80.00;60.50;;;;;10.48;57.94;101999.50;4959156;28;45360;-46
2021/11/10 11:01:22;;;;;;;;;75.25;58.00;;;;;10.71;57.70;101991.72;4958891;28;45356;-44
2021/11/10 11:04:21;;;;;;;;;78.25;59.50;;;;;10.97;57.89;101985.69;4958257;28;45272;-46
2021/11/10 11:07:02;;;;;;;;;74.25;59.00;;;;;11.20;57.60;101988.44;4956718;28;45320;-46
2021/11/10 11:09:32;;;;;;;;;75.50;58.00;;;;;11.37;57.71;101991.97;4959064;28;46224;-49
2021/11/10 11:12:19;;;;;;;;;75.50;57.50;;;;;11.56;57.40;101981.50;4958932;28;45485;-48
2021/11/10 11:15:13;;;;;;;;;70.25;54.50;;;;;11.75;57.35;101986.75;4959090;28;45341;-49